Terminal Aerodrome Forecast
Issued by NWS Charleston, WV

Home | Current Version | Previous Version | Text Only | Print | Product List | Glossary On
Versions: 1 2 3 4 5 6 7 8 9 10 11 12 13 14 15 16 17 18 19 20 21 22 23 24 25
000
FTUS41 KRLX 290300 AAA
TAFHTS
TAF AMD
KHTS 290320Z 2903/2924 10004KT P6SM BKN200
     FM291300 18006KT P6SM BKN130
     FM291500 19009KT 6SM -RA BR OVC050
     FM292000 23009KT 6SM -RA BR OVC025
     FM292300 25009KT 5SM -RA BR OVC015=

USA.gov is the U.S. government's official web portal to all federal, state and local government web resources and services.